sensor_id;sensor_type;location;lat;lon;timestamp;temperature;humidity
32502;DHT22;18952;52.516;13.460;2024-03-23T00:52:14;8.00;82.00
32502;DHT22;18952;52.516;13.460;2024-03-23T00:54:41;8.00;81.20
32502;DHT22;18952;52.516;13.460;2024-03-23T00:57:07;8.00;81.50
32502;DHT22;18952;52.516;13.460;2024-03-23T00:59:34;8.00;81.00
32502;DHT22;18952;52.516;13.460;2024-03-23T01:02:00;8.00;81.70
32502;DHT22;18952;52.516;13.460;2024-03-23T01:04:26;8.10;81.50
32502;DHT22;18952;52.516;13.460;2024-03-23T01:06:54;8.10;81.20
32502;DHT22;18952;52.516;13.460;2024-03-23T01:09:20;8.20;80.60
32502;DHT22;18952;52.516;13.460;2024-03-23T01:11:47;8.10;80.20
32502;DHT22;18952;52.516;13.460;2024-03-23T01:14:14;8.20;81.00
32502;DHT22;18952;52.516;13.460;2024-03-23T01:16:40;8.20;80.90
32502;DHT22;18952;52.516;13.460;2024-03-23T01:19:06;8.20;80.60
32502;DHT22;18952;52.516;13.460;2024-03-23T01:21:33;8.20;80.00
32502;DHT22;18952;52.516;13.460;2024-03-23T01:24:00;8.20;80.50
32502;DHT22;18952;52.516;13.460;2024-03-23T01:26:27;8.30;80.40
32502;DHT22;18952;52.516;13.460;2024-03-23T01:28:54;8.30;79.70
32502;DHT22;18952;52.516;13.460;2024-03-23T01:31:22;8.30;80.10
32502;DHT22;18952;52.516;13.460;2024-03-23T01:33:48;8.20;80.90
32502;DHT22;18952;52.516;13.460;2024-03-23T01:36:14;8.20;80.30
32502;DHT22;18952;52.516;13.460;2024-03-23T01:38:41;8.40;80.10
32502;DHT22;18952;52.516;13.460;2024-03-23T01:41:07;8.40;79.70
32502;DHT22;18952;52.516;13.460;2024-03-23T01:43:33;8.50;79.90
32502;DHT22;18952;52.516;13.460;2024-03-23T01:46:00;8.50;79.70
32502;DHT22;18952;52.516;13.460;2024-03-23T01:48:27;8.60;79.90
32502;DHT22;18952;52.516;13.460;2024-03-23T01:50:55;8.60;80.00
32502;DHT22;18952;52.516;13.460;2024-03-23T01:53:22;8.60;80.40
32502;DHT22;18952;52.516;13.460;2024-03-23T01:55:50;8.60;80.20
32502;DHT22;18952;52.516;13.460;2024-03-23T01:58:17;8.70;80.20
32502;DHT22;18952;52.516;13.460;2024-03-23T02:00:45;8.60;79.60
32502;DHT22;18952;52.516;13.460;2024-03-23T02:03:27;8.40;80.10
32502;DHT22;18952;52.516;13.460;2024-03-23T02:05:56;8.40;79.80
32502;DHT22;18952;52.516;13.460;2024-03-23T02:08:23;8.30;79.80
32502;DHT22;18952;52.516;13.460;2024-03-23T02:10:51;8.20;80.00
32502;DHT22;18952;52.516;13.460;2024-03-23T02:13:18;8.20;80.80
32502;DHT22;18952;52.516;13.460;2024-03-23T02:15:46;8.30;80.70
32502;DHT22;18952;52.516;13.460;2024-03-23T02:18:12;8.30;80.10
32502;DHT22;18952;52.516;13.460;2024-03-23T02:20:39;8.30;80.50
32502;DHT22;18952;52.516;13.460;2024-03-23T02:23:10;8.40;79.90
32502;DHT22;18952;52.516;13.460;2024-03-23T02:25:39;8.30;79.90
32502;DHT22;18952;52.516;13.460;2024-03-23T02:28:05;8.40;80.10
32502;DHT22;18952;52.516;13.460;2024-03-23T02:30:32;8.40;79.50
32502;DHT22;18952;52.516;13.460;2024-03-23T02:32:58;8.50;79.70
32502;DHT22;18952;52.516;13.460;2024-03-23T02:35:24;8.50;79.60
32502;DHT22;18952;52.516;13.460;2024-03-23T02:37:50;8.50;78.80
32502;DHT22;18952;52.516;13.460;2024-03-23T02:40:19;8.40;79.70
32502;DHT22;18952;52.516;13.460;2024-03-23T02:42:45;8.40;79.40
32502;DHT22;18952;52.516;13.460;2024-03-23T02:45:12;8.40;79.20
32502;DHT22;18952;52.516;13.460;2024-03-23T02:47:38;8.30;79.30
32502;DHT22;18952;52.516;13.460;2024-03-23T02:50:06;8.50;80.00
32502;DHT22;18952;52.516;13.460;2024-03-23T02:52:32;8.30;80.20
32502;DHT22;18952;52.516;13.460;2024-03-23T02:54:58;8.20;80.60
32502;DHT22;18952;52.516;13.460;2024-03-23T02:57:25;8.30;81.00
32502;DHT22;18952;52.516;13.460;2024-03-23T02:59:51;8.30;80.80
32502;DHT22;18952;52.516;13.460;2024-03-23T03:02:18;8.30;80.60
32502;DHT22;18952;52.516;13.460;2024-03-23T03:04:45;8.30;80.60
32502;DHT22;18952;52.516;13.460;2024-03-23T03:07:10;8.20;80.70
32502;DHT22;18952;52.516;13.460;2024-03-23T03:09:37;8.10;81.20
32502;DHT22;18952;52.516;13.460;2024-03-23T03:12:02;8.20;81.50
32502;DHT22;18952;52.516;13.460;2024-03-23T03:14:28;8.10;81.40
32502;DHT22;18952;52.516;13.460;2024-03-23T03:16:55;8.10;81.50
32502;DHT22;18952;52.516;13.460;2024-03-23T03:19:22;8.20;81.20
32502;DHT22;18952;52.516;13.460;2024-03-23T03:21:49;8.20;81.10
32502;DHT22;18952;52.516;13.460;2024-03-23T03:24:17;8.20;81.20
32502;DHT22;18952;52.516;13.460;2024-03-23T03:26:44;8.40;81.20
32502;DHT22;18952;52.516;13.460;2024-03-23T03:29:10;8.30;81.00
32502;DHT22;18952;52.516;13.460;2024-03-23T03:31:38;8.30;80.50
32502;DHT22;18952;52.516;13.460;2024-03-23T03:34:05;8.40;81.40
32502;DHT22;18952;52.516;13.460;2024-03-23T03:36:30;8.30;81.40
32502;DHT22;18952;52.516;13.460;2024-03-23T03:38:56;8.40;81.60
32502;DHT22;18952;52.516;13.460;2024-03-23T03:41:24;8.40;81.20
32502;DHT22;18952;52.516;13.460;2024-03-23T03:43:51;8.20;80.60
32502;DHT22;18952;52.516;13.460;2024-03-23T03:46:17;8.10;80.40
32502;DHT22;18952;52.516;13.460;2024-03-23T03:48:43;7.90;81.00
32502;DHT22;18952;52.516;13.460;2024-03-23T03:51:10;7.70;81.50
32502;DHT22;18952;52.516;13.460;2024-03-23T03:53:37;7.80;82.60
32502;DHT22;18952;52.516;13.460;2024-03-23T03:56:02;7.60;82.40
32502;DHT22;18952;52.516;13.460;2024-03-23T03:58:28;7.50;81.70
32502;DHT22;18952;52.516;13.460;2024-03-23T04:00:56;7.50;81.30
32502;DHT22;18952;52.516;13.460;2024-03-23T04:03:21;7.50;81.60
32502;DHT22;18952;52.516;13.460;2024-03-23T04:05:55;7.50;81.60
32502;DHT22;18952;52.516;13.460;2024-03-23T04:08:22;7.40;81.10
32502;DHT22;18952;52.516;13.460;2024-03-23T04:10:48;7.40;81.50
32502;DHT22;18952;52.516;13.460;2024-03-23T04:13:18;7.40;81.40
32502;DHT22;18952;52.516;13.460;2024-03-23T04:15:45;7.40;81.30
32502;DHT22;18952;52.516;13.460;2024-03-23T04:18:11;7.30;81.10
32502;DHT22;18952;52.516;13.460;2024-03-23T04:20:38;7.30;82.00
32502;DHT22;18952;52.516;13.460;2024-03-23T04:23:05;7.30;81.70
32502;DHT22;18952;52.516;13.460;2024-03-23T04:25:32;7.20;81.90
32502;DHT22;18952;52.516;13.460;2024-03-23T04:27:58;7.20;82.30
32502;DHT22;18952;52.516;13.460;2024-03-23T04:30:27;7.00;82.20
32502;DHT22;18952;52.516;13.460;2024-03-23T04:32:54;7.00;82.90
32502;DHT22;18952;52.516;13.460;2024-03-23T04:35:20;7.00;82.80
32502;DHT22;18952;52.516;13.460;2024-03-23T04:37:48;7.10;82.50
32502;DHT22;18952;52.516;13.460;2024-03-23T04:40:14;6.90;83.80
32502;DHT22;18952;52.516;13.460;2024-03-23T04:42:39;7.00;83.60
32502;DHT22;18952;52.516;13.460;2024-03-23T04:45:07;6.90;83.30
32502;DHT22;18952;52.516;13.460;2024-03-23T04:47:34;6.90;83.80
32502;DHT22;18952;52.516;13.460;2024-03-23T04:50:02;7.00;83.30
32502;DHT22;18952;52.516;13.460;2024-03-23T04:52:29;7.00;83.60
32502;DHT22;18952;52.516;13.460;2024-03-23T04:54:57;7.00;83.10
32502;DHT22;18952;52.516;13.460;2024-03-23T04:57:25;7.10;83.50
32502;DHT22;18952;52.516;13.460;2024-03-23T04:59:52;7.20;83.30
32502;DHT22;18952;52.516;13.460;2024-03-23T05:02:18;7.20;82.50
32502;DHT22;18952;52.516;13.460;2024-03-23T05:04:46;7.30;81.90
32502;DHT22;18952;52.516;13.460;2024-03-23T05:07:12;7.20;81.40
32502;DHT22;18952;52.516;13.460;2024-03-23T05:09:37;7.20;81.70
32502;DHT22;18952;52.516;13.460;2024-03-23T05:12:05;7.20;81.50
32502;DHT22;18952;52.516;13.460;2024-03-23T05:14:32;7.20;81.20
32502;DHT22;18952;52.516;13.460;2024-03-23T05:16:59;7.30;81.40
32502;DHT22;18952;52.516;13.460;2024-03-23T05:19:25;7.10;81.10
32502;DHT22;18952;52.516;13.460;2024-03-23T05:21:52;7.00;81.80
32502;DHT22;18952;52.516;13.460;2024-03-23T05:24:18;7.20;81.90
32502;DHT22;18952;52.516;13.460;2024-03-23T05:26:45;7.20;81.60
32502;DHT22;18952;52.516;13.460;2024-03-23T05:29:10;7.10;81.00
32502;DHT22;18952;52.516;13.460;2024-03-23T05:31:38;7.10;80.10
32502;DHT22;18952;52.516;13.460;2024-03-23T05:34:04;7.10;80.70
32502;DHT22;18952;52.516;13.460;2024-03-23T05:36:32;7.10;80.70
32502;DHT22;18952;52.516;13.460;2024-03-23T05:38:59;7.20;80.80
32502;DHT22;18952;52.516;13.460;2024-03-23T05:41:24;7.00;81.10
32502;DHT22;18952;52.516;13.460;2024-03-23T05:43:50;7.10;81.20
32502;DHT22;18952;52.516;13.460;2024-03-23T05:46:16;7.10;81.20
32502;DHT22;18952;52.516;13.460;2024-03-23T05:48:42;7.10;80.80
32502;DHT22;18952;52.516;13.460;2024-03-23T05:51:09;7.10;81.10
32502;DHT22;18952;52.516;13.460;2024-03-23T05:53:35;7.10;81.40
32502;DHT22;18952;52.516;13.460;2024-03-23T05:56:03;7.10;80.80
32502;DHT22;18952;52.516;13.460;2024-03-23T05:58:30;7.20;81.50
32502;DHT22;18952;52.516;13.460;2024-03-23T06:01:00;7.30;81.70
32502;DHT22;18952;52.516;13.460;2024-03-23T06:03:28;7.50;81.10
32502;DHT22;18952;52.516;13.460;2024-03-23T06:05:56;7.40;80.90
32502;DHT22;18952;52.516;13.460;2024-03-23T06:08:23;7.40;80.20
32502;DHT22;18952;52.516;13.460;2024-03-23T06:10:50;7.40;80.90
32502;DHT22;18952;52.516;13.460;2024-03-23T06:13:17;7.40;81.40
32502;DHT22;18952;52.516;13.460;2024-03-23T06:15:44;7.50;81.30
32502;DHT22;18952;52.516;13.460;2024-03-23T06:18:10;7.50;81.60
32502;DHT22;18952;52.516;13.460;2024-03-23T06:20:38;7.50;82.10
32502;DHT22;18952;52.516;13.460;2024-03-23T06:23:05;7.50;82.40
32502;DHT22;18952;52.516;13.460;2024-03-23T06:25:32;7.50;82.60
32502;DHT22;18952;52.516;13.460;2024-03-23T06:27:58;7.50;82.40
32502;DHT22;18952;52.516;13.460;2024-03-23T06:30:25;7.50;82.60
32502;DHT22;18952;52.516;13.460;2024-03-23T06:32:51;7.40;82.30
32502;DHT22;18952;52.516;13.460;2024-03-23T06:35:17;7.40;82.90
32502;DHT22;18952;52.516;13.460;2024-03-23T06:37:44;7.30;82.80
32502;DHT22;18952;52.516;13.460;2024-03-23T06:40:10;7.40;82.80
32502;DHT22;18952;52.516;13.460;2024-03-23T06:42:37;7.30;82.50
32502;DHT22;18952;52.516;13.460;2024-03-23T06:45:05;7.30;83.00
32502;DHT22;18952;52.516;13.460;2024-03-23T06:47:33;7.10;83.60
32502;DHT22;18952;52.516;13.460;2024-03-23T06:50:04;7.00;84.90
32502;DHT22;18952;52.516;13.460;2024-03-23T06:52:30;6.80;83.80
32502;DHT22;18952;52.516;13.460;2024-03-23T06:54:57;6.80;84.10
32502;DHT22;18952;52.516;13.460;2024-03-23T06:57:25;6.90;84.10
32502;DHT22;18952;52.516;13.460;2024-03-23T06:59:50;6.90;83.70
32502;DHT22;18952;52.516;13.460;2024-03-23T07:02:17;7.00;82.10
32502;DHT22;18952;52.516;13.460;2024-03-23T07:04:43;7.10;83.20
32502;DHT22;18952;52.516;13.460;2024-03-23T07:07:09;7.30;82.90
32502;DHT22;18952;52.516;13.460;2024-03-23T07:09:37;7.30;80.10
32502;DHT22;18952;52.516;13.460;2024-03-23T07:12:04;7.40;80.90
32502;DHT22;18952;52.516;13.460;2024-03-23T07:14:30;7.40;81.40
32502;DHT22;18952;52.516;13.460;2024-03-23T07:16:57;7.40;79.60
32502;DHT22;18952;52.516;13.460;2024-03-23T07:19:24;7.40;80.90
32502;DHT22;18952;52.516;13.460;2024-03-23T07:21:51;7.30;80.50
32502;DHT22;18952;52.516;13.460;2024-03-23T07:24:17;7.40;79.70
32502;DHT22;18952;52.516;13.460;2024-03-23T07:26:44;7.30;80.10
32502;DHT22;18952;52.516;13.460;2024-03-23T07:29:10;7.40;80.60
32502;DHT22;18952;52.516;13.460;2024-03-23T07:31:37;7.40;80.90
32502;DHT22;18952;52.516;13.460;2024-03-23T07:34:03;7.60;81.00
32502;DHT22;18952;52.516;13.460;2024-03-23T07:36:30;7.30;79.90
32502;DHT22;18952;52.516;13.460;2024-03-23T07:38:57;7.30;80.30
32502;DHT22;18952;52.516;13.460;2024-03-23T07:41:24;7.40;80.30
32502;DHT22;18952;52.516;13.460;2024-03-23T07:43:51;7.40;78.70
32502;DHT22;18952;52.516;13.460;2024-03-23T07:46:18;7.50;79.60
32502;DHT22;18952;52.516;13.460;2024-03-23T07:48:45;7.50;80.30
32502;DHT22;18952;52.516;13.460;2024-03-23T07:51:16;7.50;79.80
32502;DHT22;18952;52.516;13.460;2024-03-23T07:53:44;7.50;77.40
32502;DHT22;18952;52.516;13.460;2024-03-23T07:56:10;7.60;79.00
32502;DHT22;18952;52.516;13.460;2024-03-23T07:58:38;7.50;79.10
32502;DHT22;18952;52.516;13.460;2024-03-23T08:01:09;7.60;79.90
32502;DHT22;18952;52.516;13.460;2024-03-23T08:03:38;7.30;78.10
32502;DHT22;18952;52.516;13.460;2024-03-23T08:06:15;7.30;78.30
32502;DHT22;18952;52.516;13.460;2024-03-23T08:08:44;7.30;78.20
32502;DHT22;18952;52.516;13.460;2024-03-23T08:11:10;7.40;79.40
32502;DHT22;18952;52.516;13.460;2024-03-23T08:13:41;7.30;78.30
32502;DHT22;18952;52.516;13.460;2024-03-23T08:16:10;7.00;78.50
32502;DHT22;18952;52.516;13.460;2024-03-23T08:18:36;6.50;80.80
32502;DHT22;18952;52.516;13.460;2024-03-23T08:21:03;6.40;81.50
32502;DHT22;18952;52.516;13.460;2024-03-23T08:23:34;6.50;82.40
32502;DHT22;18952;52.516;13.460;2024-03-23T08:26:18;6.40;82.80
32502;DHT22;18952;52.516;13.460;2024-03-23T08:28:46;6.40;83.00
32502;DHT22;18952;52.516;13.460;2024-03-23T08:31:13;6.50;83.20
32502;DHT22;18952;52.516;13.460;2024-03-23T08:33:40;6.60;83.90
32502;DHT22;18952;52.516;13.460;2024-03-23T08:36:09;6.30;82.00
32502;DHT22;18952;52.516;13.460;2024-03-23T08:38:36;6.20;81.30
32502;DHT22;18952;52.516;13.460;2024-03-23T08:41:06;6.00;83.00
32502;DHT22;18952;52.516;13.460;2024-03-23T08:43:38;6.00;83.90
32502;DHT22;18952;52.516;13.460;2024-03-23T08:46:12;5.90;83.40
32502;DHT22;18952;52.516;13.460;2024-03-23T08:48:43;5.60;82.90
32502;DHT22;18952;52.516;13.460;2024-03-23T08:51:15;5.70;84.80
32502;DHT22;18952;52.516;13.460;2024-03-23T08:53:43;5.80;84.10
32502;DHT22;18952;52.516;13.460;2024-03-23T08:56:11;5.70;83.30
32502;DHT22;18952;52.516;13.460;2024-03-23T08:58:39;5.40;84.60
32502;DHT22;18952;52.516;13.460;2024-03-23T09:01:10;5.50;85.40
32502;DHT22;18952;52.516;13.460;2024-03-23T09:03:37;5.50;85.40
32502;DHT22;18952;52.516;13.460;2024-03-23T09:06:08;5.50;85.80
32502;DHT22;18952;52.516;13.460;2024-03-23T09:08:37;5.60;84.90
32502;DHT22;18952;52.516;13.460;2024-03-23T09:11:10;5.50;83.40
32502;DHT22;18952;52.516;13.460;2024-03-23T09:13:38;5.40;83.30
32502;DHT22;18952;52.516;13.460;2024-03-23T09:16:04;5.30;83.60
32502;DHT22;18952;52.516;13.460;2024-03-23T09:18:36;5.40;82.30
32502;DHT22;18952;52.516;13.460;2024-03-23T09:21:03;5.30;82.50
32502;DHT22;18952;52.516;13.460;2024-03-23T09:23:29;5.20;82.90
32502;DHT22;18952;52.516;13.460;2024-03-23T09:25:56;5.20;83.60
32502;DHT22;18952;52.516;13.460;2024-03-23T09:28:22;5.30;84.00
32502;DHT22;18952;52.516;13.460;2024-03-23T09:30:49;5.30;83.60
32502;DHT22;18952;52.516;13.460;2024-03-23T09:33:15;5.40;82.90
32502;DHT22;18952;52.516;13.460;2024-03-23T09:35:42;5.40;83.20
32502;DHT22;18952;52.516;13.460;2024-03-23T09:38:10;5.10;81.90
32502;DHT22;18952;52.516;13.460;2024-03-23T09:40:43;4.90;81.90
32502;DHT22;18952;52.516;13.460;2024-03-23T09:43:12;4.90;83.80
32502;DHT22;18952;52.516;13.460;2024-03-23T09:45:45;5.00;84.10
32502;DHT22;18952;52.516;13.460;2024-03-23T09:48:13;5.00;83.80
32502;DHT22;18952;52.516;13.460;2024-03-23T09:50:39;5.10;83.80
32502;DHT22;18952;52.516;13.460;2024-03-23T09:53:07;5.00;82.70
32502;DHT22;18952;52.516;13.460;2024-03-23T09:55:34;4.90;82.90
32502;DHT22;18952;52.516;13.460;2024-03-23T09:58:02;4.80;82.10
32502;DHT22;18952;52.516;13.460;2024-03-23T10:00:30;4.70;82.10
32502;DHT22;18952;52.516;13.460;2024-03-23T10:02:58;4.70;83.50
32502;DHT22;18952;52.516;13.460;2024-03-23T10:05:25;4.80;83.60
32502;DHT22;18952;52.516;13.460;2024-03-23T10:07:51;4.80;83.00
32502;DHT22;18952;52.516;13.460;2024-03-23T10:10:19;5.00;81.40
32502;DHT22;18952;52.516;13.460;2024-03-23T10:12:48;5.00;81.40
32502;DHT22;18952;52.516;13.460;2024-03-23T10:15:20;4.70;81.20
32502;DHT22;18952;52.516;13.460;2024-03-23T10:17:47;4.80;81.10
32502;DHT22;18952;52.516;13.460;2024-03-23T10:20:20;4.80;81.20
32502;DHT22;18952;52.516;13.460;2024-03-23T10:22:46;4.80;81.10
32502;DHT22;18952;52.516;13.460;2024-03-23T10:25:12;4.70;81.50
32502;DHT22;18952;52.516;13.460;2024-03-23T10:27:37;4.70;81.90
32502;DHT22;18952;52.516;13.460;2024-03-23T10:30:14;4.80;82.00
32502;DHT22;18952;52.516;13.460;2024-03-23T10:32:40;4.90;81.80
32502;DHT22;18952;52.516;13.460;2024-03-23T10:35:20;4.80;80.90
32502;DHT22;18952;52.516;13.460;2024-03-23T10:37:48;4.90;82.00
32502;DHT22;18952;52.516;13.460;2024-03-23T10:40:15;4.90;81.90
32502;DHT22;18952;52.516;13.460;2024-03-23T10:42:43;4.80;81.50
32502;DHT22;18952;52.516;13.460;2024-03-23T10:45:09;4.80;81.20
32502;DHT22;18952;52.516;13.460;2024-03-23T10:47:37;4.80;80.50
32502;DHT22;18952;52.516;13.460;2024-03-23T10:50:06;4.90;81.00
32502;DHT22;18952;52.516;13.460;2024-03-23T10:52:34;4.80;82.30
32502;DHT22;18952;52.516;13.460;2024-03-23T10:55:04;5.00;82.70
32502;DHT22;18952;52.516;13.460;2024-03-23T10:57:54;5.00;82.20
32502;DHT22;18952;52.516;13.460;2024-03-23T11:00:21;5.00;81.10
32502;DHT22;18952;52.516;13.460;2024-03-23T11:02:48;5.10;81.60
32502;DHT22;18952;52.516;13.460;2024-03-23T11:05:29;5.00;80.10
32502;DHT22;18952;52.516;13.460;2024-03-23T11:07:56;5.00;79.60
32502;DHT22;18952;52.516;13.460;2024-03-23T11:10:27;5.00;80.30
32502;DHT22;18952;52.516;13.460;2024-03-23T11:13:21;5.10;81.10
32502;DHT22;18952;52.516;13.460;2024-03-23T11:15:47;5.20;79.70
32502;DHT22;18952;52.516;13.460;2024-03-23T11:18:21;5.20;79.50
32502;DHT22;18952;52.516;13.460;2024-03-23T11:20:47;5.30;78.60
32502;DHT22;18952;52.516;13.460;2024-03-23T11:23:28;5.20;77.50
32502;DHT22;18952;52.516;13.460;2024-03-23T11:25:55;5.20;77.90
32502;DHT22;18952;52.516;13.460;2024-03-23T11:28:22;5.20;77.40
32502;DHT22;18952;52.516;13.460;2024-03-23T11:30:50;5.30;76.70
32502;DHT22;18952;52.516;13.460;2024-03-23T11:33:16;5.30;76.80
32502;DHT22;18952;52.516;13.460;2024-03-23T11:35:44;5.40;77.50
32502;DHT22;18952;52.516;13.460;2024-03-23T11:38:18;5.50;76.60
32502;DHT22;18952;52.516;13.460;2024-03-23T11:40:47;5.60;76.00
32502;DHT22;18952;52.516;13.460;2024-03-23T11:43:18;5.70;74.70
32502;DHT22;18952;52.516;13.460;2024-03-23T11:45:50;5.80;74.40
32502;DHT22;18952;52.516;13.460;2024-03-23T11:48:19;5.90;75.80
32502;DHT22;18952;52.516;13.460;2024-03-23T11:50:55;6.10;75.40
32502;DHT22;18952;52.516;13.460;2024-03-23T11:53:24;6.30;75.60
32502;DHT22;18952;52.516;13.460;2024-03-23T11:55:53;6.40;74.80
32502;DHT22;18952;52.516;13.460;2024-03-23T11:58:24;6.60;73.60
32502;DHT22;18952;52.516;13.460;2024-03-23T12:00:59;6.70;73.10
32502;DHT22;18952;52.516;13.460;2024-03-23T12:03:27;6.70;74.40
32502;DHT22;18952;52.516;13.460;2024-03-23T12:06:02;6.70;73.50
32502;DHT22;18952;52.516;13.460;2024-03-23T12:08:35;6.70;72.20
32502;DHT22;18952;52.516;13.460;2024-03-23T12:11:17;6.70;72.50
32502;DHT22;18952;52.516;13.460;2024-03-23T12:13:45;6.60;72.40
32502;DHT22;18952;52.516;13.460;2024-03-23T12:16:18;6.60;72.20
32502;DHT22;18952;52.516;13.460;2024-03-23T12:18:46;6.40;72.10
32502;DHT22;18952;52.516;13.460;2024-03-23T12:21:13;6.30;73.70
32502;DHT22;18952;52.516;13.460;2024-03-23T12:23:40;6.30;72.90
32502;DHT22;18952;52.516;13.460;2024-03-23T12:26:07;6.20;75.10
32502;DHT22;18952;52.516;13.460;2024-03-23T12:28:34;6.30;74.50
32502;DHT22;18952;52.516;13.460;2024-03-23T12:31:01;6.30;73.30
32502;DHT22;18952;52.516;13.460;2024-03-23T12:33:27;6.30;74.30
32502;DHT22;18952;52.516;13.460;2024-03-23T12:35:59;6.40;73.80
32502;DHT22;18952;52.516;13.460;2024-03-23T12:38:26;6.60;73.10
32502;DHT22;18952;52.516;13.460;2024-03-23T12:40:54;6.50;73.70
32502;DHT22;18952;52.516;13.460;2024-03-23T12:43:20;6.60;74.90
32502;DHT22;18952;52.516;13.460;2024-03-23T12:45:53;6.70;74.30
32502;DHT22;18952;52.516;13.460;2024-03-23T12:48:21;6.80;74.00
32502;DHT22;18952;52.516;13.460;2024-03-23T12:50:56;6.90;74.60
32502;DHT22;18952;52.516;13.460;2024-03-23T12:53:24;7.00;73.50
32502;DHT22;18952;52.516;13.460;2024-03-23T12:55:51;7.10;73.40
32502;DHT22;18952;52.516;13.460;2024-03-23T12:58:20;7.30;73.00
32502;DHT22;18952;52.516;13.460;2024-03-23T13:00:46;7.30;73.20
32502;DHT22;18952;52.516;13.460;2024-03-23T13:03:14;7.40;72.00
32502;DHT22;18952;52.516;13.460;2024-03-23T13:05:40;7.40;69.50
32502;DHT22;18952;52.516;13.460;2024-03-23T13:08:08;7.40;70.90
32502;DHT22;18952;52.516;13.460;2024-03-23T13:10:34;7.30;69.40
32502;DHT22;18952;52.516;13.460;2024-03-23T13:13:02;7.20;68.50
32502;DHT22;18952;52.516;13.460;2024-03-23T13:15:28;7.20;70.10
32502;DHT22;18952;52.516;13.460;2024-03-23T13:17:58;7.40;70.50
32502;DHT22;18952;52.516;13.460;2024-03-23T13:20:24;7.40;69.70
32502;DHT22;18952;52.516;13.460;2024-03-23T13:22:52;7.40;69.60
32502;DHT22;18952;52.516;13.460;2024-03-23T13:25:19;7.40;70.50
32502;DHT22;18952;52.516;13.460;2024-03-23T13:27:45;7.60;71.00
32502;DHT22;18952;52.516;13.460;2024-03-23T13:30:12;7.60;70.00
32502;DHT22;18952;52.516;13.460;2024-03-23T13:32:39;7.90;70.20
32502;DHT22;18952;52.516;13.460;2024-03-23T13:35:05;8.30;68.20
32502;DHT22;18952;52.516;13.460;2024-03-23T13:37:31;8.60;68.50
32502;DHT22;18952;52.516;13.460;2024-03-23T13:39:58;9.00;67.80
32502;DHT22;18952;52.516;13.460;2024-03-23T13:42:24;9.30;65.90
32502;DHT22;18952;52.516;13.460;2024-03-23T13:44:50;9.70;65.40
32502;DHT22;18952;52.516;13.460;2024-03-23T13:47:18;9.90;64.40
32502;DHT22;18952;52.516;13.460;2024-03-23T13:49:45;9.90;63.00
32502;DHT22;18952;52.516;13.460;2024-03-23T13:52:13;9.80;63.00
32502;DHT22;18952;52.516;13.460;2024-03-23T13:54:39;10.00;62.90
32502;DHT22;18952;52.516;13.460;2024-03-23T13:57:06;10.30;63.20
32502;DHT22;18952;52.516;13.460;2024-03-23T13:59:32;10.40;60.30
32502;DHT22;18952;52.516;13.460;2024-03-23T14:01:59;10.40;61.00
32502;DHT22;18952;52.516;13.460;2024-03-23T14:04:26;10.20;60.60
32502;DHT22;18952;52.516;13.460;2024-03-23T14:06:52;10.20;60.50
32502;DHT22;18952;52.516;13.460;2024-03-23T14:09:23;10.00;61.10
32502;DHT22;18952;52.516;13.460;2024-03-23T14:11:49;9.70;62.30
32502;DHT22;18952;52.516;13.460;2024-03-23T14:14:15;9.70;61.70
32502;DHT22;18952;52.516;13.460;2024-03-23T14:16:43;9.60;62.30
32502;DHT22;18952;52.516;13.460;2024-03-23T14:19:09;9.50;62.60
32502;DHT22;18952;52.516;13.460;2024-03-23T14:21:35;9.50;63.40
32502;DHT22;18952;52.516;13.460;2024-03-23T14:24:02;9.30;61.50
32502;DHT22;18952;52.516;13.460;2024-03-23T14:26:29;9.40;61.60
32502;DHT22;18952;52.516;13.460;2024-03-23T14:28:56;9.30;61.80
32502;DHT22;18952;52.516;13.460;2024-03-23T14:31:23;9.30;63.20
32502;DHT22;18952;52.516;13.460;2024-03-23T14:33:49;9.20;63.50
32502;DHT22;18952;52.516;13.460;2024-03-23T14:36:17;9.00;63.90
32502;DHT22;18952;52.516;13.460;2024-03-23T14:38:47;8.90;62.50
32502;DHT22;18952;52.516;13.460;2024-03-23T14:41:15;8.60;61.30
32502;DHT22;18952;52.516;13.460;2024-03-23T14:43:41;8.60;62.80
32502;DHT22;18952;52.516;13.460;2024-03-23T14:46:13;8.50;62.70
32502;DHT22;18952;52.516;13.460;2024-03-23T14:48:42;8.50;63.30
32502;DHT22;18952;52.516;13.460;2024-03-23T14:51:08;8.40;62.70
32502;DHT22;18952;52.516;13.460;2024-03-23T14:53:40;8.40;62.70
32502;DHT22;18952;52.516;13.460;2024-03-23T14:56:08;8.30;62.90
32502;DHT22;18952;52.516;13.460;2024-03-23T14:58:35;8.10;66.10
32502;DHT22;18952;52.516;13.460;2024-03-23T15:01:05;7.50;67.70
32502;DHT22;18952;52.516;13.460;2024-03-23T15:03:32;7.20;72.00
32502;DHT22;18952;52.516;13.460;2024-03-23T15:05:58;6.90;75.00
32502;DHT22;18952;52.516;13.460;2024-03-23T15:08:26;6.00;77.00
32502;DHT22;18952;52.516;13.460;2024-03-23T15:10:53;5.30;83.90
32502;DHT22;18952;52.516;13.460;2024-03-23T15:13:19;5.00;88.50
32502;DHT22;18952;52.516;13.460;2024-03-23T15:15:48;5.20;90.20
32502;DHT22;18952;52.516;13.460;2024-03-23T15:18:14;5.40;89.20
32502;DHT22;18952;52.516;13.460;2024-03-23T15:20:41;5.80;89.60
32502;DHT22;18952;52.516;13.460;2024-03-23T15:23:07;6.20;90.30
32502;DHT22;18952;52.516;13.460;2024-03-23T15:25:37;6.70;90.30
32502;DHT22;18952;52.516;13.460;2024-03-23T15:28:03;7.10;90.00
32502;DHT22;18952;52.516;13.460;2024-03-23T15:30:30;7.20;88.20
32502;DHT22;18952;52.516;13.460;2024-03-23T15:32:57;7.60;86.60
32502;DHT22;18952;52.516;13.460;2024-03-23T15:35:25;7.60;81.00
32502;DHT22;18952;52.516;13.460;2024-03-23T15:37:52;7.90;81.20
32502;DHT22;18952;52.516;13.460;2024-03-23T15:40:18;8.00;78.30
32502;DHT22;18952;52.516;13.460;2024-03-23T15:42:45;7.90;78.70
32502;DHT22;18952;52.516;13.460;2024-03-23T15:45:11;8.10;77.80
32502;DHT22;18952;52.516;13.460;2024-03-23T15:47:38;8.00;75.90
32502;DHT22;18952;52.516;13.460;2024-03-23T15:50:05;8.00;74.70
32502;DHT22;18952;52.516;13.460;2024-03-23T15:52:31;8.10;74.80
32502;DHT22;18952;52.516;13.460;2024-03-23T15:54:58;8.10;73.50
32502;DHT22;18952;52.516;13.460;2024-03-23T15:57:24;8.00;72.20
32502;DHT22;18952;52.516;13.460;2024-03-23T15:59:51;8.10;73.30
32502;DHT22;18952;52.516;13.460;2024-03-23T16:02:19;8.20;73.30
32502;DHT22;18952;52.516;13.460;2024-03-23T16:04:44;8.20;69.90
32502;DHT22;18952;52.516;13.460;2024-03-23T16:07:11;7.90;72.10
32502;DHT22;18952;52.516;13.460;2024-03-23T16:09:39;8.00;71.20
32502;DHT22;18952;52.516;13.460;2024-03-23T16:12:05;8.00;70.40
32502;DHT22;18952;52.516;13.460;2024-03-23T16:14:32;7.90;69.70
32502;DHT22;18952;52.516;13.460;2024-03-23T16:16:58;7.90;70.20
32502;DHT22;18952;52.516;13.460;2024-03-23T16:19:24;7.90;68.20
32502;DHT22;18952;52.516;13.460;2024-03-23T16:21:51;7.90;68.70
32502;DHT22;18952;52.516;13.460;2024-03-23T16:24:18;7.80;68.40